Glasford, Illinois
Current Conditions -  °F | °C
As of 11:54 AM on Friday 21 Nov 2014 (Local Time) from KPIA Reporting Station
Clear Clear  
Wind Chill: 24°   Ceiling: Unl
Heat Index: 32°   Visibility: 10mi
Dew Point:   Wind: 10mph
Humidity: 34%   Direction: 170°S
Pressure: 30.41"   Gusts: NA
Location:  40.57°N, 89.81°W
Report Text: KPIA 211754Z 17009KT 10SM CLR 00/M14 A3041 RMK AO2 SLP306 T00001144 10006 21100 58016
Loading
Personal Weather Stations






























Interactive Weather Map New forecast layout! Learn more

10-Day Weather Forecast

Advertisements
Track Severe Weather on mobile